Agra, Kansas
Current Conditions -  °F | °C
As of 12:53 AM on Monday 24 Nov 2014 (Local Time) from KHLC Reporting Station
Clear Clear  
Wind Chill: 25°   Ceiling: Unl
Heat Index: 35°   Visibility: 10mi
Dew Point: 16°   Wind: 16mph
Humidity: 46%   Direction: 290°WNW
Pressure: 29.75"   Gusts: NA
Location:  39.76°N, 99.12°W
Report Text: KHLC 240653Z AUTO 29014KT 10SM CLR 02/M09 A2975 RMK AO2 SLP083 T00171089
Loading
Personal Weather Stations






























Interactive Weather Map New forecast layout! Learn more

10-Day Weather Forecast

Advertisements
Track Severe Weather on mobile